Gp 1 — YP2990 — position and weather

sailwx.info

Track history (hours):
 
Tides and Currents Weather Stations Pressure Air Temp Water Temp Dewpoint Dewpoint Depression Visibility Wind Speed Wind Dir Waves Ship Positions

Gp 1

Last reported at 2018-Feb-07 09:30 UTC. Time now 2018-Feb-22 10:48 UTC.
Position N 44°19' E 028°38'.
Warning: this ship's position is 15 days out of date.

Length 12 m; draft 1.5 m.

Type: Tanker. MMSI: 264162990.

Date/timePositionNaut miles runAvg speedWind from/ knotsBaromVisibWave heightAir tempDewpointWater temp
2018-Feb-07 09:30N 44°19' E 028°38'0 0.0
2018-Feb-07 09:00N 44°19' E 028°38'0 0.0
2018-Feb-07 08:30N 44°19' E 028°38'0 0.0
2018-Feb-07 08:00N 44°19' E 028°38'0 0.0
2018-Feb-07 07:30N 44°19' E 028°38'1 2.9
2018-Feb-07 07:00N 44°20' E 028°40'1 1.1
2018-Feb-07 06:30N 44°20' E 028°40'0 0.0
2018-Feb-07 06:00N 44°20' E 028°40'0 0.0
2018-Feb-07 05:30N 44°20' E 028°40'0 0.0
2018-Feb-07 05:00N 44°20' E 028°40'0 0.0
2018-Feb-07 04:30N 44°20' E 028°40'0 0.0
2018-Feb-07 04:00N 44°20' E 028°40'0 0.0
2018-Feb-07 03:30N 44°20' E 028°40'0 0.0
2018-Feb-07 03:00N 44°20' E 028°40'0 0.0
2018-Feb-07 02:30N 44°20' E 028°40'0 0.0
2018-Feb-07 02:00N 44°20' E 028°40'0 0.0
2018-Feb-07 01:30N 44°20' E 028°40'0 0.0
2018-Feb-07 01:00N 44°20' E 028°40'0 0.0
2018-Feb-07 00:30N 44°20' E 028°40'0 0.0
2018-Feb-07 00:00N 44°20' E 028°40'0 0.0
2018-Feb-06 23:30N 44°20' E 028°40'0 0.0
2018-Feb-06 23:00N 44°20' E 028°40'0 0.0
2018-Feb-06 22:30N 44°20' E 028°40'0 0.0
2018-Feb-06 21:59N 44°20' E 028°40'0 0.0
2018-Feb-06 21:30N 44°20' E 028°40'0 0.0
2018-Feb-06 21:00N 44°20' E 028°40'0 0.0
2018-Feb-06 20:30N 44°20' E 028°40'0 0.0
2018-Feb-06 20:00N 44°20' E 028°40'0 0.0
2018-Feb-06 19:30N 44°20' E 028°40'0 0.0
2018-Feb-06 19:00N 44°20' E 028°40'0 0.0
2018-Feb-06 18:30N 44°20' E 028°40'0 0.0
2018-Feb-06 18:00N 44°20' E 028°40'0 0.0
2018-Feb-06 17:30N 44°20' E 028°40'0 0.0
2018-Feb-06 17:00N 44°20' E 028°40'0 0.0
2018-Feb-06 16:30N 44°20' E 028°40'0 0.0
2018-Feb-06 16:00N 44°20' E 028°40'0 0.0
2018-Feb-06 15:30N 44°20' E 028°40'0 0.0
2018-Feb-06 15:00N 44°20' E 028°40'0 0.0
2018-Feb-06 14:30N 44°20' E 028°40'1 1.9
2018-Feb-06 14:00N 44°20' E 028°39'1 2.4
2018-Feb-06 13:30N 44°19' E 028°38'2 3.8
2018-Feb-06 13:00N 44°17' E 028°37'3 5.5
2018-Feb-06 12:30N 44°16' E 028°33'1 1.5
2018-Feb-06 12:00N 44°16' E 028°33'0 0.1
2018-Feb-06 11:30N 44°16' E 028°32'7 5.3
2018-Feb-06 10:08N 44°13' E 028°23'1 5.3
2018-Feb-06 10:00N 44°13' E 028°23'4 5.3
2018-Feb-06 09:18N 44°15' E 028°18'  
2018-Feb-01 09:36N 44°29' E 022°11'1 6.9
2018-Feb-01 09:30N 44°29' E 022°11'3 6.4
2018-Feb-01 09:00N 44°29' E 022°07'4 7.0
2018-Feb-01 08:30N 44°32' E 022°04'18 6.3
2018-Feb-01 05:39N 44°40' E 021°41'1 6.0
2018-Feb-01 05:30N 44°40' E 021°40'3 6.6
2018-Feb-01 05:00N 44°43' E 021°37'4 6.9
2018-Feb-01 04:30N 44°46' E 021°34'2 0.1
2018-Jan-31 14:47N 44°46' E 021°32'24 5.7
2018-Jan-31 10:39N 44°43' E 020°59'1 7.6
2018-Jan-31 10:30N 44°42' E 020°58'4 7.4
2018-Jan-31 09:59N 44°40' E 020°53'0 0.3
2018-Jan-31 09:30N 44°40' E 020°54'0 0.0
2018-Jan-30 12:57N 44°40' E 020°54'0 0.0
2018-Jan-30 12:24N 44°40' E 020°54'0 0.0
2018-Jan-30 11:56N 44°40' E 020°54'0 0.0
2018-Jan-30 11:30N 44°40' E 020°54'0 0.0
2018-Jan-30 10:30N 44°40' E 020°54'0 0.0
2018-Jan-30 09:30N 44°40' E 020°54'0 0.0
2018-Jan-30 09:00N 44°40' E 020°54'0 0.0
2018-Jan-30 08:30N 44°40' E 020°54'0 0.0
2018-Jan-30 08:01N 44°40' E 020°54'0 0.0
2018-Jan-30 07:30N 44°40' E 020°54'0 0.0
2018-Jan-30 07:00N 44°40' E 020°54'0 0.0
2018-Jan-30 06:30N 44°40' E 020°54'0 0.0
2018-Jan-29 22:27N 44°40' E 020°54'0 0.0
2018-Jan-29 22:00N 44°40' E 020°54'0 0.0
2018-Jan-29 21:30N 44°40' E 020°54'0 0.0
2018-Jan-29 21:01N 44°40' E 020°54'0 0.0
2018-Jan-29 20:30N 44°40' E 020°54'0 0.0
2018-Jan-29 20:00N 44°40' E 020°54'0 0.0
2018-Jan-29 19:30N 44°40' E 020°54'0 0.0
2018-Jan-29 19:00N 44°40' E 020°54'0 0.0
2018-Jan-29 18:30N 44°40' E 020°54'0 0.0
2018-Jan-29 18:00N 44°40' E 020°54'0 0.0
2018-Jan-29 17:30N 44°40' E 020°54'0 0.0
2018-Jan-29 17:01N 44°40' E 020°54'0 0.0
2018-Jan-29 16:30N 44°40' E 020°54'0 0.0
2018-Jan-29 16:00N 44°40' E 020°54'0 0.0
2018-Jan-29 15:31N 44°40' E 020°54'0 0.0
2018-Jan-29 15:01N 44°40' E 020°54'0 0.0
2018-Jan-29 14:30N 44°40' E 020°54'0 0.0
2018-Jan-29 14:01N 44°40' E 020°54'0 0.0
2018-Jan-29 13:30N 44°40' E 020°54'0 0.0
2018-Jan-29 12:51N 44°40' E 020°54'0 0.0
2018-Jan-29 12:31N 44°40' E 020°54'0 0.0
2018-Jan-29 12:01N 44°40' E 020°54'0 0.0
2018-Jan-29 11:31N 44°40' E 020°54'0 0.0
2018-Jan-29 11:00N 44°40' E 020°54'0 0.0
2018-Jan-29 10:30N 44°40' E 020°54'0 0.0
2018-Jan-29 10:00N 44°40' E 020°54'0 0.0
2018-Jan-29 09:30N 44°40' E 020°54'0 0.0
2018-Jan-29 09:00N 44°40' E 020°54'0 0.0
2018-Jan-29 08:29N 44°40' E 020°54'0 0.0
2018-Jan-29 08:00N 44°40' E 020°54'0 0.0
2018-Jan-29 07:30N 44°40' E 020°54'0 0.0
2018-Jan-28 22:59N 44°40' E 020°54'0 0.0
2018-Jan-28 22:03N 44°40' E 020°54'0 0.0
2018-Jan-28 22:00N 44°40' E 020°54'0 0.0
2018-Jan-28 21:30N 44°40' E 020°54'0 0.0
2018-Jan-28 20:53N 44°40' E 020°54'0 0.0
2018-Jan-28 20:28N 44°40' E 020°54'0 0.0
2018-Jan-28 19:57N 44°40' E 020°54'0 0.0
2018-Jan-28 19:30N 44°40' E 020°54'0 0.0
2018-Jan-28 18:58N 44°40' E 020°54'0 0.0
2018-Jan-28 18:29N 44°40' E 020°54'0 0.0
2018-Jan-28 17:59N 44°40' E 020°54'0 0.0
2018-Jan-28 17:22N 44°40' E 020°54'0 0.0
2018-Jan-28 16:59N 44°40' E 020°54'0 0.0
2018-Jan-28 16:27N 44°40' E 020°54'0 0.0
2018-Jan-28 15:47N 44°40' E 020°54'0 0.0
2018-Jan-28 15:30N 44°40' E 020°54'0 0.0
2018-Jan-28 15:00N 44°40' E 020°54'0 0.0
2018-Jan-28 14:30N 44°40' E 020°54'0 0.0
2018-Jan-28 14:00N 44°40' E 020°54'0 0.0
2018-Jan-28 13:28N 44°40' E 020°54'0 0.0
2018-Jan-28 13:00N 44°40' E 020°54'0 0.0
2018-Jan-28 12:29N 44°40' E 020°54'0 0.0
2018-Jan-28 12:00N 44°40' E 020°54'  
Track history (hours):
 
Tides and Currents Weather Stations Pressure Air Temp Water Temp Dewpoint Dewpoint Depression Visibility Wind Speed Wind Dir Waves Ship Positions

Gp 1

Last reported at 2018-Feb-07 09:30 UTC. Time now 2018-Feb-22 10:48 UTC.
Position N 44°19' E 028°38'.
Warning: this ship's position is 15 days out of date.

Length 12 m; draft 1.5 m.

Type: Tanker. MMSI: 264162990.

Date/timePositionNaut miles runAvg speedWind from/ knotsBaromVisibWave heightAir tempDewpointWater temp
2018-Feb-07 09:30N 44°19' E 028°38'0 0.0
2018-Feb-07 09:00N 44°19' E 028°38'0 0.0
2018-Feb-07 08:30N 44°19' E 028°38'0 0.0
2018-Feb-07 08:00N 44°19' E 028°38'0 0.0
2018-Feb-07 07:30N 44°19' E 028°38'1 2.9
2018-Feb-07 07:00N 44°20' E 028°40'1 1.1
2018-Feb-07 06:30N 44°20' E 028°40'0 0.0
2018-Feb-07 06:00N 44°20' E 028°40'0 0.0
2018-Feb-07 05:30N 44°20' E 028°40'0 0.0
2018-Feb-07 05:00N 44°20' E 028°40'0 0.0
2018-Feb-07 04:30N 44°20' E 028°40'0 0.0
2018-Feb-07 04:00N 44°20' E 028°40'0 0.0
2018-Feb-07 03:30N 44°20' E 028°40'0 0.0
2018-Feb-07 03:00N 44°20' E 028°40'0 0.0
2018-Feb-07 02:30N 44°20' E 028°40'0 0.0
2018-Feb-07 02:00N 44°20' E 028°40'0 0.0
2018-Feb-07 01:30N 44°20' E 028°40'0 0.0
2018-Feb-07 01:00N 44°20' E 028°40'0 0.0
2018-Feb-07 00:30N 44°20' E 028°40'0 0.0
2018-Feb-07 00:00N 44°20' E 028°40'0 0.0
2018-Feb-06 23:30N 44°20' E 028°40'0 0.0
2018-Feb-06 23:00N 44°20' E 028°40'0 0.0
2018-Feb-06 22:30N 44°20' E 028°40'0 0.0
2018-Feb-06 21:59N 44°20' E 028°40'0 0.0
2018-Feb-06 21:30N 44°20' E 028°40'0 0.0
2018-Feb-06 21:00N 44°20' E 028°40'0 0.0
2018-Feb-06 20:30N 44°20' E 028°40'0 0.0
2018-Feb-06 20:00N 44°20' E 028°40'0 0.0
2018-Feb-06 19:30N 44°20' E 028°40'0 0.0
2018-Feb-06 19:00N 44°20' E 028°40'0 0.0
2018-Feb-06 18:30N 44°20' E 028°40'0 0.0
2018-Feb-06 18:00N 44°20' E 028°40'0 0.0
2018-Feb-06 17:30N 44°20' E 028°40'0 0.0
2018-Feb-06 17:00N 44°20' E 028°40'0 0.0
2018-Feb-06 16:30N 44°20' E 028°40'0 0.0
2018-Feb-06 16:00N 44°20' E 028°40'0 0.0
2018-Feb-06 15:30N 44°20' E 028°40'0 0.0
2018-Feb-06 15:00N 44°20' E 028°40'0 0.0
2018-Feb-06 14:30N 44°20' E 028°40'1 1.9
2018-Feb-06 14:00N 44°20' E 028°39'1 2.4
2018-Feb-06 13:30N 44°19' E 028°38'2 3.8
2018-Feb-06 13:00N 44°17' E 028°37'3 5.5
2018-Feb-06 12:30N 44°16' E 028°33'1 1.5
2018-Feb-06 12:00N 44°16' E 028°33'0 0.1
2018-Feb-06 11:30N 44°16' E 028°32'7 5.3
2018-Feb-06 10:08N 44°13' E 028°23'1 5.3
2018-Feb-06 10:00N 44°13' E 028°23'4 5.3
2018-Feb-06 09:18N 44°15' E 028°18'  
2018-Feb-01 09:36N 44°29' E 022°11'1 6.9
2018-Feb-01 09:30N 44°29' E 022°11'3 6.4
2018-Feb-01 09:00N 44°29' E 022°07'4 7.0
2018-Feb-01 08:30N 44°32' E 022°04'18 6.3
2018-Feb-01 05:39N 44°40' E 021°41'1 6.0
2018-Feb-01 05:30N 44°40' E 021°40'3 6.6
2018-Feb-01 05:00N 44°43' E 021°37'4 6.9
2018-Feb-01 04:30N 44°46' E 021°34'2 0.1
2018-Jan-31 14:47N 44°46' E 021°32'24 5.7
2018-Jan-31 10:39N 44°43' E 020°59'1 7.6
2018-Jan-31 10:30N 44°42' E 020°58'4 7.4
2018-Jan-31 09:59N 44°40' E 020°53'0 0.3
2018-Jan-31 09:30N 44°40' E 020°54'0 0.0
2018-Jan-30 12:57N 44°40' E 020°54'0 0.0
2018-Jan-30 12:24N 44°40' E 020°54'0 0.0
2018-Jan-30 11:56N 44°40' E 020°54'0 0.0
2018-Jan-30 11:30N 44°40' E 020°54'0 0.0
2018-Jan-30 10:30N 44°40' E 020°54'0 0.0
2018-Jan-30 09:30N 44°40' E 020°54'0 0.0
2018-Jan-30 09:00N 44°40' E 020°54'0 0.0
2018-Jan-30 08:30N 44°40' E 020°54'0 0.0
2018-Jan-30 08:01N 44°40' E 020°54'0 0.0
2018-Jan-30 07:30N 44°40' E 020°54'0 0.0
2018-Jan-30 07:00N 44°40' E 020°54'0 0.0
2018-Jan-30 06:30N 44°40' E 020°54'0 0.0
2018-Jan-29 22:27N 44°40' E 020°54'0 0.0
2018-Jan-29 22:00N 44°40' E 020°54'0 0.0
2018-Jan-29 21:30N 44°40' E 020°54'0 0.0
2018-Jan-29 21:01N 44°40' E 020°54'0 0.0
2018-Jan-29 20:30N 44°40' E 020°54'0 0.0
2018-Jan-29 20:00N 44°40' E 020°54'0 0.0
2018-Jan-29 19:30N 44°40' E 020°54'0 0.0
2018-Jan-29 19:00N 44°40' E 020°54'0 0.0
2018-Jan-29 18:30N 44°40' E 020°54'0 0.0
2018-Jan-29 18:00N 44°40' E 020°54'0 0.0
2018-Jan-29 17:30N 44°40' E 020°54'0 0.0
2018-Jan-29 17:01N 44°40' E 020°54'0 0.0
2018-Jan-29 16:30N 44°40' E 020°54'0 0.0
2018-Jan-29 16:00N 44°40' E 020°54'0 0.0
2018-Jan-29 15:31N 44°40' E 020°54'0 0.0
2018-Jan-29 15:01N 44°40' E 020°54'0 0.0
2018-Jan-29 14:30N 44°40' E 020°54'0 0.0
2018-Jan-29 14:01N 44°40' E 020°54'0 0.0
2018-Jan-29 13:30N 44°40' E 020°54'0 0.0
2018-Jan-29 12:51N 44°40' E 020°54'0 0.0
2018-Jan-29 12:31N 44°40' E 020°54'0 0.0
2018-Jan-29 12:01N 44°40' E 020°54'0 0.0
2018-Jan-29 11:31N 44°40' E 020°54'0 0.0
2018-Jan-29 11:00N 44°40' E 020°54'0 0.0
2018-Jan-29 10:30N 44°40' E 020°54'0 0.0
2018-Jan-29 10:00N 44°40' E 020°54'0 0.0
2018-Jan-29 09:30N 44°40' E 020°54'0 0.0
2018-Jan-29 09:00N 44°40' E 020°54'0 0.0
2018-Jan-29 08:29N 44°40' E 020°54'0 0.0
2018-Jan-29 08:00N 44°40' E 020°54'0 0.0
2018-Jan-29 07:30N 44°40' E 020°54'0 0.0
2018-Jan-28 22:59N 44°40' E 020°54'0 0.0
2018-Jan-28 22:03N 44°40' E 020°54'0 0.0
2018-Jan-28 22:00N 44°40' E 020°54'0 0.0
2018-Jan-28 21:30N 44°40' E 020°54'0 0.0
2018-Jan-28 20:53N 44°40' E 020°54'0 0.0
2018-Jan-28 20:28N 44°40' E 020°54'0 0.0
2018-Jan-28 19:57N 44°40' E 020°54'0 0.0
2018-Jan-28 19:30N 44°40' E 020°54'0 0.0
2018-Jan-28 18:58N 44°40' E 020°54'0 0.0
2018-Jan-28 18:29N 44°40' E 020°54'0 0.0
2018-Jan-28 17:59N 44°40' E 020°54'0 0.0
2018-Jan-28 17:22N 44°40' E 020°54'0 0.0
2018-Jan-28 16:59N 44°40' E 020°54'0 0.0
2018-Jan-28 16:27N 44°40' E 020°54'0 0.0
2018-Jan-28 15:47N 44°40' E 020°54'0 0.0
2018-Jan-28 15:30N 44°40' E 020°54'0 0.0
2018-Jan-28 15:00N 44°40' E 020°54'0 0.0
2018-Jan-28 14:30N 44°40' E 020°54'0 0.0
2018-Jan-28 14:00N 44°40' E 020°54'0 0.0
2018-Jan-28 13:28N 44°40' E 020°54'0 0.0
2018-Jan-28 13:00N 44°40' E 020°54'0 0.0
2018-Jan-28 12:29N 44°40' E 020°54'0 0.0
2018-Jan-28 12:00N 44°40' E 020°54'  

Dump ship's entire track history